sensor_id;sensor_type;location;lat;lon;timestamp;P1;durP1;ratioP1;P2;durP2;ratioP2
22213;SDS011;11276;43.566;27.824;2022-10-26T00:01:01;14.30;;;4.47;;
22213;SDS011;11276;43.566;27.824;2022-10-26T00:03:29;16.20;;;5.37;;
22213;SDS011;11276;43.566;27.824;2022-10-26T00:06:01;16.33;;;4.50;;
22213;SDS011;11276;43.566;27.824;2022-10-26T00:08:29;11.57;;;5.30;;
22213;SDS011;11276;43.566;27.824;2022-10-26T00:10:56;10.40;;;5.27;;
22213;SDS011;11276;43.566;27.824;2022-10-26T00:13:23;14.10;;;5.40;;
22213;SDS011;11276;43.566;27.824;2022-10-26T00:15:49;12.00;;;5.47;;
22213;SDS011;11276;43.566;27.824;2022-10-26T00:18:16;14.43;;;5.20;;
22213;SDS011;11276;43.566;27.824;2022-10-26T00:20:43;12.07;;;5.40;;
22213;SDS011;11276;43.566;27.824;2022-10-26T00:23:10;11.93;;;5.10;;
22213;SDS011;11276;43.566;27.824;2022-10-26T00:25:36;10.50;;;4.77;;
22213;SDS011;11276;43.566;27.824;2022-10-26T00:28:03;8.97;;;4.67;;
22213;SDS011;11276;43.566;27.824;2022-10-26T00:30:30;10.10;;;4.97;;
22213;SDS011;11276;43.566;27.824;2022-10-26T00:32:57;8.97;;;4.30;;
22213;SDS011;11276;43.566;27.824;2022-10-26T00:35:23;17.40;;;4.67;;
22213;SDS011;11276;43.566;27.824;2022-10-26T00:37:59;13.00;;;5.20;;
22213;SDS011;11276;43.566;27.824;2022-10-26T00:40:27;13.63;;;5.10;;
22213;SDS011;11276;43.566;27.824;2022-10-26T00:42:54;17.87;;;5.30;;
22213;SDS011;11276;43.566;27.824;2022-10-26T00:45:23;13.30;;;5.40;;
22213;SDS011;11276;43.566;27.824;2022-10-26T00:50:24;13.07;;;5.83;;
22213;SDS011;11276;43.566;27.824;2022-10-26T00:52:55;16.83;;;5.30;;
22213;SDS011;11276;43.566;27.824;2022-10-26T00:55:26;14.30;;;6.53;;
22213;SDS011;11276;43.566;27.824;2022-10-26T00:57:56;19.77;;;5.47;;
22213;SDS011;11276;43.566;27.824;2022-10-26T01:00:23;16.83;;;5.47;;
22213;SDS011;11276;43.566;27.824;2022-10-26T01:02:50;13.97;;;5.73;;
22213;SDS011;11276;43.566;27.824;2022-10-26T01:05:20;12.00;;;6.30;;
22213;SDS011;11276;43.566;27.824;2022-10-26T01:07:47;17.43;;;5.50;;
22213;SDS011;11276;43.566;27.824;2022-10-26T01:10:14;14.47;;;4.93;;
22213;SDS011;11276;43.566;27.824;2022-10-26T01:12:41;11.00;;;5.40;;
22213;SDS011;11276;43.566;27.824;2022-10-26T01:15:08;16.43;;;5.63;;
22213;SDS011;11276;43.566;27.824;2022-10-26T01:22:39;17.27;;;6.73;;
22213;SDS011;11276;43.566;27.824;2022-10-26T01:38:46;16.50;;;7.23;;
22213;SDS011;11276;43.566;27.824;2022-10-26T01:41:33;16.27;;;6.37;;
22213;SDS011;11276;43.566;27.824;2022-10-26T01:44:05;14.73;;;6.13;;
22213;SDS011;11276;43.566;27.824;2022-10-26T01:46:44;13.43;;;6.20;;
22213;SDS011;11276;43.566;27.824;2022-10-26T01:49:15;22.73;;;8.87;;
22213;SDS011;11276;43.566;27.824;2022-10-26T01:51:47;17.00;;;7.03;;
22213;SDS011;11276;43.566;27.824;2022-10-26T01:54:15;14.43;;;6.50;;
22213;SDS011;11276;43.566;27.824;2022-10-26T01:56:46;13.63;;;6.07;;
22213;SDS011;11276;43.566;27.824;2022-10-26T02:09:58;13.83;;;8.20;;
22213;SDS011;11276;43.566;27.824;2022-10-26T02:18:11;20.37;;;9.20;;
22213;SDS011;11276;43.566;27.824;2022-10-26T02:20:50;18.97;;;8.50;;
22213;SDS011;11276;43.566;27.824;2022-10-26T02:23:20;18.10;;;9.00;;
22213;SDS011;11276;43.566;27.824;2022-10-26T02:25:53;20.80;;;7.77;;
22213;SDS011;11276;43.566;27.824;2022-10-26T02:28:24;18.57;;;8.73;;
22213;SDS011;11276;43.566;27.824;2022-10-26T02:30:57;23.93;;;8.93;;
22213;SDS011;11276;43.566;27.824;2022-10-26T02:33:25;17.70;;;9.03;;
22213;SDS011;11276;43.566;27.824;2022-10-26T02:35:56;20.13;;;8.70;;
22213;SDS011;11276;43.566;27.824;2022-10-26T02:38:27;16.90;;;8.40;;
22213;SDS011;11276;43.566;27.824;2022-10-26T02:40:56;18.43;;;7.30;;
22213;SDS011;11276;43.566;27.824;2022-10-26T02:43:25;13.53;;;7.93;;
22213;SDS011;11276;43.566;27.824;2022-10-26T02:45:55;21.13;;;8.40;;
22213;SDS011;11276;43.566;27.824;2022-10-26T02:48:27;13.50;;;7.23;;
22213;SDS011;11276;43.566;27.824;2022-10-26T02:56:18;16.97;;;7.83;;
22213;SDS011;11276;43.566;27.824;2022-10-26T02:58:50;19.40;;;8.20;;
22213;SDS011;11276;43.566;27.824;2022-10-26T03:01:20;20.97;;;8.83;;
22213;SDS011;11276;43.566;27.824;2022-10-26T03:03:47;20.53;;;8.63;;
22213;SDS011;11276;43.566;27.824;2022-10-26T03:06:23;19.57;;;8.40;;
22213;SDS011;11276;43.566;27.824;2022-10-26T03:08:50;14.07;;;8.03;;
22213;SDS011;11276;43.566;27.824;2022-10-26T03:11:17;15.50;;;7.77;;
22213;SDS011;11276;43.566;27.824;2022-10-26T03:13:44;20.40;;;8.27;;
22213;SDS011;11276;43.566;27.824;2022-10-26T03:16:11;24.50;;;9.03;;
22213;SDS011;11276;43.566;27.824;2022-10-26T03:18:37;16.10;;;8.50;;
22213;SDS011;11276;43.566;27.824;2022-10-26T03:21:04;26.83;;;8.70;;
22213;SDS011;11276;43.566;27.824;2022-10-26T03:23:31;17.00;;;8.60;;
22213;SDS011;11276;43.566;27.824;2022-10-26T03:25:58;13.60;;;7.90;;
22213;SDS011;11276;43.566;27.824;2022-10-26T03:28:25;21.67;;;8.60;;
22213;SDS011;11276;43.566;27.824;2022-10-26T03:30:52;20.17;;;8.80;;
22213;SDS011;11276;43.566;27.824;2022-10-26T03:33:18;20.40;;;9.00;;
22213;SDS011;11276;43.566;27.824;2022-10-26T03:35:52;18.33;;;9.40;;
22213;SDS011;11276;43.566;27.824;2022-10-26T03:38:20;23.73;;;8.47;;
22213;SDS011;11276;43.566;27.824;2022-10-26T03:40:47;17.63;;;8.80;;
22213;SDS011;11276;43.566;27.824;2022-10-26T03:43:14;19.40;;;8.40;;
22213;SDS011;11276;43.566;27.824;2022-10-26T03:45:40;15.97;;;8.10;;
22213;SDS011;11276;43.566;27.824;2022-10-26T03:48:07;21.07;;;8.97;;
22213;SDS011;11276;43.566;27.824;2022-10-26T03:50:34;15.67;;;8.23;;
22213;SDS011;11276;43.566;27.824;2022-10-26T03:53:01;16.20;;;7.93;;
22213;SDS011;11276;43.566;27.824;2022-10-26T03:55:27;19.80;;;8.37;;
22213;SDS011;11276;43.566;27.824;2022-10-26T03:57:54;12.50;;;6.97;;
22213;SDS011;11276;43.566;27.824;2022-10-26T04:00:21;13.70;;;8.07;;
22213;SDS011;11276;43.566;27.824;2022-10-26T04:02:57;16.00;;;7.80;;
22213;SDS011;11276;43.566;27.824;2022-10-26T04:05:25;26.67;;;8.40;;
22213;SDS011;11276;43.566;27.824;2022-10-26T04:07:53;18.83;;;7.70;;
22213;SDS011;11276;43.566;27.824;2022-10-26T04:10:25;19.97;;;7.67;;
22213;SDS011;11276;43.566;27.824;2022-10-26T04:12:52;21.63;;;8.30;;
22213;SDS011;11276;43.566;27.824;2022-10-26T04:15:20;15.23;;;8.40;;
22213;SDS011;11276;43.566;27.824;2022-10-26T04:17:47;18.93;;;8.00;;
22213;SDS011;11276;43.566;27.824;2022-10-26T04:20:20;17.77;;;7.70;;
22213;SDS011;11276;43.566;27.824;2022-10-26T04:22:46;14.07;;;8.07;;
22213;SDS011;11276;43.566;27.824;2022-10-26T04:25:13;18.03;;;7.60;;
22213;SDS011;11276;43.566;27.824;2022-10-26T04:27:40;20.33;;;8.57;;
22213;SDS011;11276;43.566;27.824;2022-10-26T04:30:06;15.53;;;8.10;;
22213;SDS011;11276;43.566;27.824;2022-10-26T04:32:36;17.47;;;7.87;;
22213;SDS011;11276;43.566;27.824;2022-10-26T04:35:03;17.37;;;7.33;;
22213;SDS011;11276;43.566;27.824;2022-10-26T04:37:30;25.50;;;7.90;;
22213;SDS011;11276;43.566;27.824;2022-10-26T04:39:57;21.63;;;8.97;;
22213;SDS011;11276;43.566;27.824;2022-10-26T04:42:23;20.63;;;9.13;;
22213;SDS011;11276;43.566;27.824;2022-10-26T04:44:50;17.90;;;8.83;;
22213;SDS011;11276;43.566;27.824;2022-10-26T04:47:17;20.93;;;9.30;;
22213;SDS011;11276;43.566;27.824;2022-10-26T04:49:43;16.07;;;7.40;;
22213;SDS011;11276;43.566;27.824;2022-10-26T04:52:10;18.53;;;9.40;;
22213;SDS011;11276;43.566;27.824;2022-10-26T04:54:37;16.40;;;8.70;;
22213;SDS011;11276;43.566;27.824;2022-10-26T04:57:03;15.43;;;8.50;;
22213;SDS011;11276;43.566;27.824;2022-10-26T04:59:30;18.63;;;8.40;;
22213;SDS011;11276;43.566;27.824;2022-10-26T05:01:57;20.43;;;8.07;;
22213;SDS011;11276;43.566;27.824;2022-10-26T05:04:23;20.93;;;8.47;;
22213;SDS011;11276;43.566;27.824;2022-10-26T05:06:51;23.47;;;9.40;;
22213;SDS011;11276;43.566;27.824;2022-10-26T05:09:18;19.73;;;8.33;;
22213;SDS011;11276;43.566;27.824;2022-10-26T05:11:45;16.27;;;8.20;;
22213;SDS011;11276;43.566;27.824;2022-10-26T05:14:12;32.60;;;8.90;;
22213;SDS011;11276;43.566;27.824;2022-10-26T05:16:38;15.57;;;9.03;;
22213;SDS011;11276;43.566;27.824;2022-10-26T05:19:05;18.00;;;8.33;;
22213;SDS011;11276;43.566;27.824;2022-10-26T05:21:32;13.83;;;7.83;;
22213;SDS011;11276;43.566;27.824;2022-10-26T05:23:58;12.07;;;7.13;;
22213;SDS011;11276;43.566;27.824;2022-10-26T05:26:25;18.13;;;7.93;;
22213;SDS011;11276;43.566;27.824;2022-10-26T05:28:52;20.80;;;8.07;;
22213;SDS011;11276;43.566;27.824;2022-10-26T05:31:19;19.67;;;8.00;;
22213;SDS011;11276;43.566;27.824;2022-10-26T05:33:49;16.43;;;8.27;;
22213;SDS011;11276;43.566;27.824;2022-10-26T05:36:17;17.20;;;8.53;;
22213;SDS011;11276;43.566;27.824;2022-10-26T05:38:44;20.70;;;8.60;;
22213;SDS011;11276;43.566;27.824;2022-10-26T05:41:11;26.13;;;7.90;;
22213;SDS011;11276;43.566;27.824;2022-10-26T05:43:38;27.50;;;9.30;;
22213;SDS011;11276;43.566;27.824;2022-10-26T05:46:04;41.23;;;8.47;;
22213;SDS011;11276;43.566;27.824;2022-10-26T05:48:31;29.33;;;9.57;;
22213;SDS011;11276;43.566;27.824;2022-10-26T05:50:58;21.03;;;8.43;;
22213;SDS011;11276;43.566;27.824;2022-10-26T05:53:26;15.50;;;8.50;;
22213;SDS011;11276;43.566;27.824;2022-10-26T05:55:54;15.23;;;7.47;;
22213;SDS011;11276;43.566;27.824;2022-10-26T05:58:21;24.40;;;7.77;;
22213;SDS011;11276;43.566;27.824;2022-10-26T06:00:59;19.40;;;7.37;;
22213;SDS011;11276;43.566;27.824;2022-10-26T06:06:43;14.83;;;7.17;;
22213;SDS011;11276;43.566;27.824;2022-10-26T06:09:11;19.17;;;6.17;;
22213;SDS011;11276;43.566;27.824;2022-10-26T06:11:40;10.30;;;6.43;;
22213;SDS011;11276;43.566;27.824;2022-10-26T06:14:07;12.97;;;6.27;;
22213;SDS011;11276;43.566;27.824;2022-10-26T06:16:45;12.00;;;6.37;;
22213;SDS011;11276;43.566;27.824;2022-10-26T06:28:04;14.40;;;5.50;;
22213;SDS011;11276;43.566;27.824;2022-10-26T06:30:32;11.70;;;5.87;;
22213;SDS011;11276;43.566;27.824;2022-10-26T06:32:59;13.53;;;5.80;;
22213;SDS011;11276;43.566;27.824;2022-10-26T06:38:17;13.23;;;5.67;;
22213;SDS011;11276;43.566;27.824;2022-10-26T06:40:48;10.90;;;5.70;;
22213;SDS011;11276;43.566;27.824;2022-10-26T06:43:24;16.43;;;6.30;;
22213;SDS011;11276;43.566;27.824;2022-10-26T06:46:13;21.10;;;6.10;;
22213;SDS011;11276;43.566;27.824;2022-10-26T06:51:26;9.57;;;5.73;;
22213;SDS011;11276;43.566;27.824;2022-10-26T06:53:58;12.77;;;5.73;;
22213;SDS011;11276;43.566;27.824;2022-10-26T06:56:30;16.30;;;6.27;;
22213;SDS011;11276;43.566;27.824;2022-10-26T06:58:59;9.60;;;5.10;;
22213;SDS011;11276;43.566;27.824;2022-10-26T07:01:33;5.73;;;4.70;;
22213;SDS011;11276;43.566;27.824;2022-10-26T07:04:00;8.27;;;4.80;;
22213;SDS011;11276;43.566;27.824;2022-10-26T07:06:26;6.40;;;5.07;;
22213;SDS011;11276;43.566;27.824;2022-10-26T07:08:53;10.80;;;4.90;;
22213;SDS011;11276;43.566;27.824;2022-10-26T07:11:20;7.87;;;5.43;;
22213;SDS011;11276;43.566;27.824;2022-10-26T07:13:46;7.00;;;4.20;;
22213;SDS011;11276;43.566;27.824;2022-10-26T07:16:15;19.10;;;5.50;;
22213;SDS011;11276;43.566;27.824;2022-10-26T07:18:41;9.33;;;4.33;;
22213;SDS011;11276;43.566;27.824;2022-10-26T07:21:08;9.63;;;4.47;;
22213;SDS011;11276;43.566;27.824;2022-10-26T07:23:35;9.87;;;3.80;;
22213;SDS011;11276;43.566;27.824;2022-10-26T07:26:02;11.60;;;4.30;;
22213;SDS011;11276;43.566;27.824;2022-10-26T07:28:29;8.93;;;4.13;;
22213;SDS011;11276;43.566;27.824;2022-10-26T07:30:57;5.57;;;4.03;;
22213;SDS011;11276;43.566;27.824;2022-10-26T07:33:24;5.77;;;3.50;;
22213;SDS011;11276;43.566;27.824;2022-10-26T07:35:50;6.60;;;3.77;;
22213;SDS011;11276;43.566;27.824;2022-10-26T07:38:18;5.03;;;3.50;;
22213;SDS011;11276;43.566;27.824;2022-10-26T07:40:45;5.00;;;4.00;;
22213;SDS011;11276;43.566;27.824;2022-10-26T07:43:11;4.63;;;3.60;;
22213;SDS011;11276;43.566;27.824;2022-10-26T07:45:38;7.93;;;3.20;;
22213;SDS011;11276;43.566;27.824;2022-10-26T07:48:06;6.77;;;3.20;;
22213;SDS011;11276;43.566;27.824;2022-10-26T07:50:32;9.17;;;3.10;;
22213;SDS011;11276;43.566;27.824;2022-10-26T07:52:59;7.83;;;3.20;;
22213;SDS011;11276;43.566;27.824;2022-10-26T07:55:26;5.03;;;3.00;;
22213;SDS011;11276;43.566;27.824;2022-10-26T07:57:53;4.67;;;3.17;;
22213;SDS011;11276;43.566;27.824;2022-10-26T08:00:20;6.30;;;2.90;;
22213;SDS011;11276;43.566;27.824;2022-10-26T08:02:47;6.17;;;2.70;;
22213;SDS011;11276;43.566;27.824;2022-10-26T08:05:14;9.23;;;3.10;;
22213;SDS011;11276;43.566;27.824;2022-10-26T08:07:41;3.50;;;2.60;;
22213;SDS011;11276;43.566;27.824;2022-10-26T08:10:10;5.17;;;2.80;;
22213;SDS011;11276;43.566;27.824;2022-10-26T08:12:38;7.93;;;2.97;;
22213;SDS011;11276;43.566;27.824;2022-10-26T08:15:05;4.40;;;3.00;;
22213;SDS011;11276;43.566;27.824;2022-10-26T08:17:33;6.63;;;3.50;;
22213;SDS011;11276;43.566;27.824;2022-10-26T08:20:00;3.80;;;2.93;;
22213;SDS011;11276;43.566;27.824;2022-10-26T08:22:29;5.93;;;2.63;;
22213;SDS011;11276;43.566;27.824;2022-10-26T08:24:56;4.00;;;2.73;;
22213;SDS011;11276;43.566;27.824;2022-10-26T08:27:23;7.00;;;3.00;;
22213;SDS011;11276;43.566;27.824;2022-10-26T08:29:49;11.10;;;2.97;;
22213;SDS011;11276;43.566;27.824;2022-10-26T08:32:16;3.63;;;2.47;;
22213;SDS011;11276;43.566;27.824;2022-10-26T08:34:43;3.90;;;2.90;;
22213;SDS011;11276;43.566;27.824;2022-10-26T08:37:10;6.03;;;2.83;;
22213;SDS011;11276;43.566;27.824;2022-10-26T08:39:36;7.10;;;2.47;;
22213;SDS011;11276;43.566;27.824;2022-10-26T08:42:05;4.77;;;3.13;;
22213;SDS011;11276;43.566;27.824;2022-10-26T08:44:41;4.47;;;2.70;;
22213;SDS011;11276;43.566;27.824;2022-10-26T08:47:16;3.60;;;2.60;;
22213;SDS011;11276;43.566;27.824;2022-10-26T08:50:00;8.10;;;2.87;;
22213;SDS011;11276;43.566;27.824;2022-10-26T08:52:36;7.20;;;2.83;;
22213;SDS011;11276;43.566;27.824;2022-10-26T08:55:11;5.37;;;2.70;;
22213;SDS011;11276;43.566;27.824;2022-10-26T08:57:41;4.23;;;2.77;;
22213;SDS011;11276;43.566;27.824;2022-10-26T09:02:50;4.40;;;2.93;;
22213;SDS011;11276;43.566;27.824;2022-10-26T09:05:29;6.70;;;3.07;;
22213;SDS011;11276;43.566;27.824;2022-10-26T09:08:06;11.27;;;3.23;;
22213;SDS011;11276;43.566;27.824;2022-10-26T09:16:22;5.23;;;3.20;;
22213;SDS011;11276;43.566;27.824;2022-10-26T09:24:30;10.40;;;3.67;;
22213;SDS011;11276;43.566;27.824;2022-10-26T09:27:18;4.07;;;3.33;;
22213;SDS011;11276;43.566;27.824;2022-10-26T09:29:49;5.70;;;3.83;;
22213;SDS011;11276;43.566;27.824;2022-10-26T09:32:18;6.07;;;3.60;;
22213;SDS011;11276;43.566;27.824;2022-10-26T09:34:50;8.13;;;3.03;;
22213;SDS011;11276;43.566;27.824;2022-10-26T09:39:55;7.47;;;3.77;;
22213;SDS011;11276;43.566;27.824;2022-10-26T09:42:35;10.73;;;3.20;;
22213;SDS011;11276;43.566;27.824;2022-10-26T09:45:15;4.50;;;3.40;;
22213;SDS011;11276;43.566;27.824;2022-10-26T09:47:55;6.43;;;3.20;;
22213;SDS011;11276;43.566;27.824;2022-10-26T09:50:28;5.23;;;3.30;;
22213;SDS011;11276;43.566;27.824;2022-10-26T09:52:59;6.60;;;3.63;;
22213;SDS011;11276;43.566;27.824;2022-10-26T09:55:26;5.77;;;3.40;;
22213;SDS011;11276;43.566;27.824;2022-10-26T09:57:56;7.30;;;3.33;;
22213;SDS011;11276;43.566;27.824;2022-10-26T10:00:26;7.70;;;3.50;;
22213;SDS011;11276;43.566;27.824;2022-10-26T10:02:57;5.03;;;3.10;;
22213;SDS011;11276;43.566;27.824;2022-10-26T10:13:30;5.10;;;2.73;;
22213;SDS011;11276;43.566;27.824;2022-10-26T10:16:07;3.60;;;3.00;;
22213;SDS011;11276;43.566;27.824;2022-10-26T10:18:52;3.53;;;2.90;;
22213;SDS011;11276;43.566;27.824;2022-10-26T10:21:30;5.73;;;3.53;;
22213;SDS011;11276;43.566;27.824;2022-10-26T10:24:19;3.87;;;3.07;;
22213;SDS011;11276;43.566;27.824;2022-10-26T10:29:50;3.50;;;3.10;;
22213;SDS011;11276;43.566;27.824;2022-10-26T10:36:07;11.03;;;3.90;;
22213;SDS011;11276;43.566;27.824;2022-10-26T10:38:39;7.63;;;3.50;;
22213;SDS011;11276;43.566;27.824;2022-10-26T10:43:44;10.23;;;3.00;;
22213;SDS011;11276;43.566;27.824;2022-10-26T10:46:19;4.73;;;2.80;;
22213;SDS011;11276;43.566;27.824;2022-10-26T10:48:50;4.70;;;2.90;;
22213;SDS011;11276;43.566;27.824;2022-10-26T10:51:20;2.90;;;2.50;;
22213;SDS011;11276;43.566;27.824;2022-10-26T10:53:51;4.20;;;3.10;;
22213;SDS011;11276;43.566;27.824;2022-10-26T10:56:31;4.63;;;2.70;;
22213;SDS011;11276;43.566;27.824;2022-10-26T10:59:29;8.40;;;3.20;;
22213;SDS011;11276;43.566;27.824;2022-10-26T11:02:23;5.57;;;2.77;;
22213;SDS011;11276;43.566;27.824;2022-10-26T11:07:43;3.53;;;2.77;;
22213;SDS011;11276;43.566;27.824;2022-10-26T11:10:18;3.87;;;2.60;;
22213;SDS011;11276;43.566;27.824;2022-10-26T11:12:54;3.07;;;2.60;;
22213;SDS011;11276;43.566;27.824;2022-10-26T11:15:25;6.27;;;3.17;;
22213;SDS011;11276;43.566;27.824;2022-10-26T11:18:11;5.47;;;2.87;;
22213;SDS011;11276;43.566;27.824;2022-10-26T11:20:47;8.03;;;2.60;;
22213;SDS011;11276;43.566;27.824;2022-10-26T11:23:24;5.30;;;2.30;;
22213;SDS011;11276;43.566;27.824;2022-10-26T11:32:09;16.70;;;2.87;;
22213;SDS011;11276;43.566;27.824;2022-10-26T11:34:53;10.10;;;3.73;;
22213;SDS011;11276;43.566;27.824;2022-10-26T11:46:08;4.20;;;2.80;;
22213;SDS011;11276;43.566;27.824;2022-10-26T11:56:58;7.40;;;2.50;;
22213;SDS011;11276;43.566;27.824;2022-10-26T11:59:27;12.07;;;2.97;;
22213;SDS011;11276;43.566;27.824;2022-10-26T12:01:59;9.13;;;2.67;;
22213;SDS011;11276;43.566;27.824;2022-10-26T12:04:31;5.20;;;2.93;;
22213;SDS011;11276;43.566;27.824;2022-10-26T12:07:01;7.07;;;3.43;;
22213;SDS011;11276;43.566;27.824;2022-10-26T12:09:33;7.23;;;3.10;;
22213;SDS011;11276;43.566;27.824;2022-10-26T12:14:58;5.77;;;2.33;;
22213;SDS011;11276;43.566;27.824;2022-10-26T12:23:29;8.73;;;3.17;;
22213;SDS011;11276;43.566;27.824;2022-10-26T12:28:48;5.80;;;2.80;;
22213;SDS011;11276;43.566;27.824;2022-10-26T12:31:51;6.03;;;3.00;;
22213;SDS011;11276;43.566;27.824;2022-10-26T12:44:30;7.53;;;2.70;;
22213;SDS011;11276;43.566;27.824;2022-10-26T12:52:51;6.20;;;2.83;;
22213;SDS011;11276;43.566;27.824;2022-10-26T13:09:06;4.60;;;3.00;;
22213;SDS011;11276;43.566;27.824;2022-10-26T13:11:35;5.10;;;2.80;;
22213;SDS011;11276;43.566;27.824;2022-10-26T13:14:17;8.90;;;2.83;;
22213;SDS011;11276;43.566;27.824;2022-10-26T13:16:50;4.23;;;2.53;;
22213;SDS011;11276;43.566;27.824;2022-10-26T13:19:24;10.13;;;2.33;;
22213;SDS011;11276;43.566;27.824;2022-10-26T13:21:59;5.67;;;3.40;;
22213;SDS011;11276;43.566;27.824;2022-10-26T13:24:27;4.70;;;2.70;;
22213;SDS011;11276;43.566;27.824;2022-10-26T13:32:30;4.80;;;2.90;;
22213;SDS011;11276;43.566;27.824;2022-10-26T13:35:01;6.53;;;2.80;;
22213;SDS011;11276;43.566;27.824;2022-10-26T13:37:29;4.80;;;2.87;;
22213;SDS011;11276;43.566;27.824;2022-10-26T13:39:59;4.87;;;2.73;;
22213;SDS011;11276;43.566;27.824;2022-10-26T13:42:32;4.87;;;3.47;;
22213;SDS011;11276;43.566;27.824;2022-10-26T13:45:24;6.50;;;2.83;;
22213;SDS011;11276;43.566;27.824;2022-10-26T13:47:55;4.87;;;3.37;;
22213;SDS011;11276;43.566;27.824;2022-10-26T13:50:52;5.10;;;2.93;;
22213;SDS011;11276;43.566;27.824;2022-10-26T13:58:56;4.23;;;2.90;;
22213;SDS011;11276;43.566;27.824;2022-10-26T14:01:28;7.70;;;3.13;;
22213;SDS011;11276;43.566;27.824;2022-10-26T14:03:55;9.97;;;3.03;;
22213;SDS011;11276;43.566;27.824;2022-10-26T14:08:54;5.07;;;3.20;;
22213;SDS011;11276;43.566;27.824;2022-10-26T14:14:12;5.97;;;2.70;;
22213;SDS011;11276;43.566;27.824;2022-10-26T14:16:44;4.70;;;3.13;;
22213;SDS011;11276;43.566;27.824;2022-10-26T14:19:23;5.97;;;3.27;;
22213;SDS011;11276;43.566;27.824;2022-10-26T14:21:53;6.27;;;3.67;;
22213;SDS011;11276;43.566;27.824;2022-10-26T14:24:22;15.23;;;3.30;;
22213;SDS011;11276;43.566;27.824;2022-10-26T14:27:19;7.03;;;3.00;;
22213;SDS011;11276;43.566;27.824;2022-10-26T14:29:49;3.90;;;2.87;;
22213;SDS011;11276;43.566;27.824;2022-10-26T14:32:37;18.63;;;4.10;;
22213;SDS011;11276;43.566;27.824;2022-10-26T14:35:04;7.70;;;3.40;;
22213;SDS011;11276;43.566;27.824;2022-10-26T14:39:57;8.37;;;3.80;;
22213;SDS011;11276;43.566;27.824;2022-10-26T14:44:57;5.83;;;3.30;;
22213;SDS011;11276;43.566;27.824;2022-10-26T14:47:28;15.10;;;4.50;;
22213;SDS011;11276;43.566;27.824;2022-10-26T14:49:57;5.60;;;3.50;;
22213;SDS011;11276;43.566;27.824;2022-10-26T14:52:31;10.80;;;4.33;;
22213;SDS011;11276;43.566;27.824;2022-10-26T14:57:39;8.57;;;3.77;;
22213;SDS011;11276;43.566;27.824;2022-10-26T15:02:38;7.67;;;4.20;;
22213;SDS011;11276;43.566;27.824;2022-10-26T15:07:41;8.23;;;3.77;;
22213;SDS011;11276;43.566;27.824;2022-10-26T15:13:35;12.90;;;4.07;;
22213;SDS011;11276;43.566;27.824;2022-10-26T15:16:06;16.13;;;6.03;;
22213;SDS011;11276;43.566;27.824;2022-10-26T15:18:48;13.47;;;5.37;;
22213;SDS011;11276;43.566;27.824;2022-10-26T15:21:29;24.23;;;6.37;;
22213;SDS011;11276;43.566;27.824;2022-10-26T15:24:02;18.87;;;6.03;;
22213;SDS011;11276;43.566;27.824;2022-10-26T15:26:42;25.00;;;6.13;;
22213;SDS011;11276;43.566;27.824;2022-10-26T15:29:32;15.30;;;5.53;;
22213;SDS011;11276;43.566;27.824;2022-10-26T15:32:03;11.70;;;6.00;;
22213;SDS011;11276;43.566;27.824;2022-10-26T15:34:31;21.83;;;6.80;;
22213;SDS011;11276;43.566;27.824;2022-10-26T15:36:58;22.23;;;7.50;;
22213;SDS011;11276;43.566;27.824;2022-10-26T15:39:25;27.27;;;7.07;;
22213;SDS011;11276;43.566;27.824;2022-10-26T15:41:52;14.83;;;7.50;;
22213;SDS011;11276;43.566;27.824;2022-10-26T15:44:20;14.70;;;7.87;;
22213;SDS011;11276;43.566;27.824;2022-10-26T15:46:47;19.90;;;7.93;;
22213;SDS011;11276;43.566;27.824;2022-10-26T15:49:18;19.27;;;9.80;;
22213;SDS011;11276;43.566;27.824;2022-10-26T15:51:46;32.73;;;9.73;;
22213;SDS011;11276;43.566;27.824;2022-10-26T15:54:14;21.27;;;10.50;;
22213;SDS011;11276;43.566;27.824;2022-10-26T15:56:41;27.80;;;10.73;;
22213;SDS011;11276;43.566;27.824;2022-10-26T15:59:12;28.83;;;11.10;;
22213;SDS011;11276;43.566;27.824;2022-10-26T16:01:41;33.73;;;12.57;;
22213;SDS011;11276;43.566;27.824;2022-10-26T16:04:09;42.17;;;11.10;;
22213;SDS011;11276;43.566;27.824;2022-10-26T16:06:37;47.43;;;11.97;;
22213;SDS011;11276;43.566;27.824;2022-10-26T16:09:06;64.07;;;10.67;;
22213;SDS011;11276;43.566;27.824;2022-10-26T16:11:35;44.80;;;12.07;;
22213;SDS011;11276;43.566;27.824;2022-10-26T16:14:02;34.87;;;10.50;;
22213;SDS011;11276;43.566;27.824;2022-10-26T16:16:29;29.70;;;10.43;;
22213;SDS011;11276;43.566;27.824;2022-10-26T16:18:56;31.10;;;10.00;;
22213;SDS011;11276;43.566;27.824;2022-10-26T16:21:31;54.17;;;11.83;;
22213;SDS011;11276;43.566;27.824;2022-10-26T16:23:58;38.17;;;11.00;;
22213;SDS011;11276;43.566;27.824;2022-10-26T16:26:25;45.33;;;11.90;;
22213;SDS011;11276;43.566;27.824;2022-10-26T16:28:51;55.57;;;13.47;;
22213;SDS011;11276;43.566;27.824;2022-10-26T16:31:19;47.37;;;14.07;;
22213;SDS011;11276;43.566;27.824;2022-10-26T16:33:46;45.47;;;14.60;;
22213;SDS011;11276;43.566;27.824;2022-10-26T16:36:15;55.83;;;16.57;;
22213;SDS011;11276;43.566;27.824;2022-10-26T16:38:42;67.47;;;17.80;;
22213;SDS011;11276;43.566;27.824;2022-10-26T16:41:10;61.33;;;19.30;;
22213;SDS011;11276;43.566;27.824;2022-10-26T16:43:42;77.50;;;19.37;;
22213;SDS011;11276;43.566;27.824;2022-10-26T16:46:11;56.87;;;19.40;;
22213;SDS011;11276;43.566;27.824;2022-10-26T16:48:39;47.03;;;16.80;;
22213;SDS011;11276;43.566;27.824;2022-10-26T16:51:08;67.87;;;19.07;;
22213;SDS011;11276;43.566;27.824;2022-10-26T16:53:36;43.00;;;14.63;;
22213;SDS011;11276;43.566;27.824;2022-10-26T16:56:04;43.30;;;17.30;;
22213;SDS011;11276;43.566;27.824;2022-10-26T16:58:36;43.40;;;15.30;;
22213;SDS011;11276;43.566;27.824;2022-10-26T17:01:04;44.13;;;15.57;;
22213;SDS011;11276;43.566;27.824;2022-10-26T17:03:32;31.10;;;13.40;;
22213;SDS011;11276;43.566;27.824;2022-10-26T17:06:00;49.90;;;13.90;;
22213;SDS011;11276;43.566;27.824;2022-10-26T17:08:29;31.03;;;12.33;;
22213;SDS011;11276;43.566;27.824;2022-10-26T17:11:04;23.43;;;10.20;;
22213;SDS011;11276;43.566;27.824;2022-10-26T17:13:34;29.13;;;10.00;;
22213;SDS011;11276;43.566;27.824;2022-10-26T17:16:02;29.70;;;10.93;;
22213;SDS011;11276;43.566;27.824;2022-10-26T17:18:30;20.80;;;9.57;;
22213;SDS011;11276;43.566;27.824;2022-10-26T17:20:57;21.50;;;9.37;;
22213;SDS011;11276;43.566;27.824;2022-10-26T17:23:24;14.63;;;7.07;;
22213;SDS011;11276;43.566;27.824;2022-10-26T17:25:51;21.87;;;8.03;;
22213;SDS011;11276;43.566;27.824;2022-10-26T17:28:17;12.70;;;7.07;;
22213;SDS011;11276;43.566;27.824;2022-10-26T17:30:44;15.20;;;6.87;;
22213;SDS011;11276;43.566;27.824;2022-10-26T17:33:11;14.53;;;6.83;;
22213;SDS011;11276;43.566;27.824;2022-10-26T17:35:38;9.83;;;6.17;;
22213;SDS011;11276;43.566;27.824;2022-10-26T17:38:04;10.07;;;6.23;;
22213;SDS011;11276;43.566;27.824;2022-10-26T17:40:31;15.37;;;5.80;;
22213;SDS011;11276;43.566;27.824;2022-10-26T17:42:58;16.93;;;5.53;;
22213;SDS011;11276;43.566;27.824;2022-10-26T17:45:25;11.37;;;6.00;;
22213;SDS011;11276;43.566;27.824;2022-10-26T17:47:52;15.87;;;5.77;;
22213;SDS011;11276;43.566;27.824;2022-10-26T17:50:19;16.10;;;5.70;;
22213;SDS011;11276;43.566;27.824;2022-10-26T17:52:46;11.00;;;5.40;;
22213;SDS011;11276;43.566;27.824;2022-10-26T17:55:12;14.23;;;5.33;;
22213;SDS011;11276;43.566;27.824;2022-10-26T17:57:39;7.33;;;5.53;;